Bookmark and Share
Track history (hours):
 

M/T Arcadia

Last reported at 2014-Apr-23 23:15 UTC. Time now 2014-Apr-24 14:02 UTC.
Position N 35°40' E 024°01'.

Length 76 m; draft 4.6 m.

Type: Ship. MMSI: 240560000.

NotesDate/timePositionNaut miles runAvg speedWind from/ knotsBaromVisibWave heightAir tempDewpointWater temp
2014-Apr-23 23:15N 35°40' E 024°01'32 8.4
2014-Apr-23 19:29N 36°11' E 023°54'8 7.5
2014-Apr-23 18:25N 36°19' E 023°51'8 7.9
2014-Apr-23 17:21N 36°27' E 023°49'7 7.8
2014-Apr-23 16:27N 36°34' E 023°47'8 7.6
2014-Apr-23 15:26N 36°42' E 023°45'18 7.9
2014-Apr-23 13:10N 36°60' E 023°42'9 8.4
2014-Apr-23 12:09N 37°08' E 023°40'22 8.5
2014-Apr-23 09:31N 37°30' E 023°34'12 8.1
2014-Apr-23 08:04N 37°39' E 023°24'5 8.7
2014-Apr-23 07:27N 37°41' E 023°18'8 8.7
2014-Apr-23 06:32N 37°48' E 023°13'8 8.5
2014-Apr-23 05:33N 37°54' E 023°06'1 0.0
2014-Apr-22 01:07N 37°55' E 023°05'0 0.0
2014-Apr-22 00:22N 37°55' E 023°05'0 0.0
2014-Apr-21 23:31N 37°55' E 023°05'0 0.0
2014-Apr-21 22:31N 37°55' E 023°05'0 0.0
2014-Apr-21 21:28N 37°55' E 023°05'0 0.0
2014-Apr-21 20:22N 37°55' E 023°05'0 0.0
2014-Apr-21 19:31N 37°55' E 023°05'0 0.0
2014-Apr-21 18:31N 37°55' E 023°05'0 0.0
2014-Apr-21 16:19N 37°55' E 023°05'0 0.0
2014-Apr-21 15:22N 37°55' E 023°05'0 0.0
2014-Apr-21 14:25N 37°55' E 023°05'0 0.0
2014-Apr-21 13:10N 37°55' E 023°05'0 0.0
2014-Apr-21 12:25N 37°55' E 023°05'0 0.0
2014-Apr-21 11:13N 37°55' E 023°05'0 0.0
2014-Apr-21 10:28N 37°55' E 023°05'18 6.2
2014-Apr-21 07:32N 37°52' E 023°27'8 8.2
2014-Apr-21 06:33N 37°57' E 023°35'0 0.1
2014-Apr-21 05:33N 37°57' E 023°35'0 0.0
2014-Apr-21 04:33N 37°57' E 023°35'0 0.0
2014-Apr-21 03:27N 37°57' E 023°35'0 0.0
2014-Apr-21 02:33N 37°57' E 023°35'0 0.0
2014-Apr-21 01:30N 37°57' E 023°35'0 0.0
2014-Apr-21 00:30N 37°57' E 023°35'0 0.0
2014-Apr-20 23:12N 37°57' E 023°35'0 0.0
2014-Apr-20 22:12N 37°57' E 023°35'0 0.0
2014-Apr-20 21:30N 37°57' E 023°35'0 0.0
2014-Apr-20 20:30N 37°57' E 023°35'0 0.0
2014-Apr-20 19:24N 37°57' E 023°35'0 0.0
2014-Apr-20 18:30N 37°57' E 023°35'0 0.0
2014-Apr-20 17:18N 37°57' E 023°35'0 0.0
2014-Apr-20 16:33N 37°57' E 023°35'0 0.0
2014-Apr-20 15:33N 37°57' E 023°35'0 0.0
2014-Apr-20 14:30N 37°57' E 023°35'0 0.0
2014-Apr-20 13:24N 37°57' E 023°35'0 0.0
2014-Apr-20 12:30N 37°57' E 023°35'0 0.0
2014-Apr-20 11:33N 37°57' E 023°35'3 2.7
2014-Apr-20 10:33N 37°55' E 023°33'0 0.0
2014-Apr-20 09:33N 37°55' E 023°33'0 0.0
2014-Apr-20 08:33N 37°55' E 023°33'0 0.0
2014-Apr-20 07:33N 37°55' E 023°33'1 0.8
2014-Apr-20 06:33N 37°54' E 023°33'8 8.3
2014-Apr-20 05:33N 37°51' E 023°23'9 8.7
2014-Apr-20 04:33N 37°53' E 023°12'14 0.8
2014-Apr-19 09:20N 37°40' E 023°20'8 8.7
2014-Apr-19 08:24N 37°37' E 023°30'4 0.1
2014-Apr-17 14:04N 37°38' E 023°25'4 8.4
2014-Apr-17 13:32N 37°40' E 023°20'10 8.4
2014-Apr-17 12:22N 37°48' E 023°13'9 0.4
2014-Apr-16 10:19N 37°55' E 023°04'16 5.4
2014-Apr-16 07:23N 37°52' E 023°24'5 6.0
2014-Apr-16 06:33N 37°53' E 023°31'5 4.9
2014-Apr-16 05:33N 37°56' E 023°35'1 0.9
2014-Apr-16 04:33N 37°57' E 023°35'0 0.0
2014-Apr-16 03:33N 37°57' E 023°35'0 0.0
2014-Apr-16 02:33N 37°57' E 023°35'0 0.0
2014-Apr-16 01:33N 37°57' E 023°35'0 0.0
2014-Apr-16 00:33N 37°57' E 023°35'0 0.0
2014-Apr-15 23:33N 37°57' E 023°35'0 0.0
2014-Apr-15 22:33N 37°57' E 023°35'0 0.0
2014-Apr-15 21:33N 37°57' E 023°35'0 0.0
2014-Apr-15 20:33N 37°57' E 023°35'0 0.0
2014-Apr-15 19:33N 37°57' E 023°35'0 0.0
2014-Apr-15 18:33N 37°57' E 023°35'0 0.0
2014-Apr-15 17:33N 37°57' E 023°35'0 0.0
2014-Apr-15 16:33N 37°57' E 023°35'0 0.0
2014-Apr-15 15:33N 37°57' E 023°35'0 0.0
2014-Apr-15 14:33N 37°57' E 023°35'0 0.0
2014-Apr-15 12:34N 37°57' E 023°35'0 0.0
2014-Apr-15 11:34N 37°57' E 023°35'0 0.0
2014-Apr-15 10:34N 37°57' E 023°35'0 0.0
2014-Apr-15 09:34N 37°57' E 023°35'0 0.0
2014-Apr-15 08:34N 37°57' E 023°35'0 0.0
2014-Apr-15 07:33N 37°57' E 023°35'0 0.0
2014-Apr-15 06:30N 37°57' E 023°35'0 0.0
2014-Apr-15 05:32N 37°57' E 023°35'2 1.2
2014-Apr-15 03:33N 37°55' E 023°35'1 1.3
2014-Apr-15 02:34N 37°54' E 023°35'0 0.1
2014-Apr-15 01:34N 37°54' E 023°35'5 5.2
2014-Apr-15 00:33N 37°50' E 023°31'6 5.6
2014-Apr-14 23:33N 37°51' E 023°24'6 5.6
2014-Apr-14 22:34N 37°52' E 023°17'  

Dump ship's entire track history

sailing weather and tide predictions

M/T Arcadia — SY7849 — position and weather